createdAt,value
2023-03-30T00:00:28.640Z,54.03
2023-03-30T00:03:00.605Z,53.22
2023-03-30T00:05:37.342Z,49.75
2023-03-30T00:08:08.664Z,52.95
2023-03-30T00:10:46.576Z,60.85
2023-03-30T00:13:18.934Z,58.10
2023-03-30T00:15:52.712Z,50.63
2023-03-30T00:18:26.571Z,53.95
2023-03-30T00:21:00.161Z,60.10
2023-03-30T00:23:34.988Z,59.13
2023-03-30T00:26:09.112Z,51.22
2023-03-30T00:29:01.464Z,53.70
2023-03-30T00:31:33.445Z,52.28
2023-03-30T00:34:08.653Z,52.72
2023-03-30T00:37:00.524Z,50.45
2023-03-30T00:39:54.789Z,57.45
2023-03-30T00:42:26.773Z,56.70
2023-03-30T00:45:21.621Z,53.40
2023-03-30T00:48:00.710Z,54.70
2023-03-30T00:50:45.276Z,61.25
2023-03-30T00:54:09.565Z,63.30
2023-03-30T00:56:42.257Z,58.58
2023-03-30T00:59:34.780Z,54.38
2023-03-30T01:02:28.643Z,54.58
2023-03-30T01:05:00.948Z,55.45
2023-03-30T01:07:35.893Z,58.53
2023-03-30T01:10:10.673Z,57.00
2023-03-30T01:12:46.688Z,54.83
2023-03-30T01:15:19.490Z,58.35
2023-03-30T01:18:29.248Z,58.85
2023-03-30T01:21:18.888Z,58.33
2023-03-30T01:24:41.608Z,49.38
2023-03-30T01:27:47.712Z,57.78
2023-03-30T01:30:59.351Z,55.50
2023-03-30T01:34:09.467Z,57.17
2023-03-30T01:37:16.662Z,57.50
2023-03-30T01:40:10.572Z,58.30
2023-03-30T01:43:03.960Z,59.13
2023-03-30T01:46:32.626Z,57.40
2023-03-30T01:49:17.369Z,53.25
2023-03-30T01:52:59.328Z,60.08
2023-03-30T01:55:56.115Z,58.40
2023-03-30T01:58:51.999Z,56.38
2023-03-30T02:01:51.873Z,57.30
2023-03-30T02:05:05.683Z,53.17
2023-03-30T02:07:44.796Z,56.53
2023-03-30T02:10:38.801Z,54.97
2023-03-30T02:13:33.800Z,57.58
2023-03-30T02:16:50.255Z,56.25
2023-03-30T02:19:23.447Z,54.15
2023-03-30T02:21:55.857Z,60.13
2023-03-30T02:24:50.641Z,57.47
2023-03-30T02:27:28.011Z,56.55
2023-03-30T02:30:22.304Z,64.85
2023-03-30T02:33:46.458Z,58.20
2023-03-30T02:37:08.322Z,59.20
2023-03-30T02:40:02.071Z,59.78
2023-03-30T02:42:34.102Z,59.60
2023-03-30T02:45:28.400Z,52.28
2023-03-30T02:48:34.517Z,32.58
2023-03-30T02:51:48.917Z,53.03
2023-03-30T02:55:36.415Z,49.97
2023-03-30T02:58:57.726Z,55.35
2023-03-30T03:01:59.808Z,56.00
2023-03-30T03:04:36.201Z,50.17
2023-03-30T03:07:26.979Z,56.83
2023-03-30T03:10:38.938Z,54.17
2023-03-30T03:13:14.385Z,53.15
2023-03-30T03:15:48.568Z,49.85
2023-03-30T03:21:35.904Z,56.92
2023-03-30T03:24:09.226Z,47.25
2023-03-30T03:27:12.431Z,46.05
2023-03-30T03:30:18.331Z,46.75
2023-03-30T03:33:13.992Z,45.85
2023-03-30T03:35:50.578Z,44.65
2023-03-30T03:38:26.274Z,36.10
2023-03-30T03:41:02.658Z,33.20
2023-03-30T03:43:59.675Z,35.50
2023-03-30T03:46:34.890Z,30.42
2023-03-30T03:49:48.095Z,32.28
2023-03-30T03:52:20.568Z,41.65
2023-03-30T03:55:13.801Z,37.13
2023-03-30T03:57:48.887Z,37.10
2023-03-30T04:00:25.846Z,32.40
2023-03-30T04:03:00.809Z,26.95
2023-03-30T04:05:34.641Z,33.75
2023-03-30T04:08:12.119Z,24.25
2023-03-30T04:10:56.309Z,25.73
2023-03-30T04:17:02.461Z,40.25
2023-03-30T04:20:13.701Z,37.03
2023-03-30T04:23:26.026Z,42.13
2023-03-30T04:26:22.088Z,41.83
2023-03-30T04:29:22.617Z,42.28
2023-03-30T04:32:06.943Z,42.45
2023-03-30T04:34:58.390Z,47.33
2023-03-30T04:38:25.895Z,44.17
2023-03-30T04:41:39.334Z,42.40
2023-03-30T04:44:51.098Z,53.20
2023-03-30T04:47:49.230Z,174.45
2023-03-30T04:50:41.531Z,180.27
2023-03-30T04:53:34.349Z,286.50
2023-03-30T04:56:28.335Z,658.25
2023-03-30T04:59:03.420Z,244.45
2023-03-30T05:02:13.441Z,55.10
2023-03-30T05:05:13.419Z,183.75
2023-03-30T05:08:18.213Z,69.15
2023-03-30T05:11:09.724Z,47.45
2023-03-30T05:13:58.795Z,51.53
2023-03-30T05:17:08.860Z,74.35
2023-03-30T05:20:03.898Z,50.38
2023-03-30T05:23:24.738Z,50.45
2023-03-30T05:26:17.523Z,48.45
2023-03-30T05:29:33.499Z,48.67
2023-03-30T05:33:05.588Z,44.90
2023-03-30T05:36:00.426Z,50.53
2023-03-30T05:38:54.243Z,25.63
2023-03-30T05:41:59.427Z,38.88
2023-03-30T05:44:50.031Z,36.25
2023-03-30T05:47:39.818Z,39.72
2023-03-30T05:51:25.185Z,35.67
2023-03-30T05:54:09.194Z,42.53
2023-03-30T05:57:03.381Z,44.25
2023-03-30T06:00:22.366Z,39.22
2023-03-30T06:03:04.767Z,44.85
2023-03-30T06:06:00.215Z,35.65
2023-03-30T06:08:52.589Z,36.17
2023-03-30T06:11:30.816Z,24.77
2023-03-30T06:14:15.181Z,22.65
2023-03-30T06:16:58.848Z,40.00
2023-03-30T06:19:30.805Z,32.58
2023-03-30T06:22:04.561Z,20.08
2023-03-30T06:25:21.052Z,37.20
2023-03-30T06:28:15.698Z,35.03
2023-03-30T06:31:08.753Z,36.78
2023-03-30T06:33:42.043Z,40.35
2023-03-30T06:36:16.229Z,41.38
2023-03-30T06:39:11.229Z,41.13
2023-03-30T06:42:03.430Z,40.90
2023-03-30T06:45:13.940Z,39.67
2023-03-30T06:48:06.871Z,38.22
2023-03-30T06:51:18.604Z,39.65
2023-03-30T06:53:53.918Z,37.65
2023-03-30T06:56:28.192Z,35.92
2023-03-30T06:59:17.207Z,41.42
2023-03-30T07:02:41.845Z,37.50
2023-03-30T07:05:33.765Z,23.98
2023-03-30T07:08:15.946Z,35.92
2023-03-30T07:10:57.342Z,37.85
2023-03-30T07:13:56.537Z,37.53
2023-03-30T07:16:54.444Z,37.67
2023-03-30T07:19:47.316Z,36.22
2023-03-30T07:22:22.365Z,42.33
2023-03-30T07:28:12.812Z,36.35
2023-03-30T07:30:46.340Z,35.90
2023-03-30T07:36:30.002Z,31.17
2023-03-30T07:39:13.976Z,31.27
2023-03-30T07:41:53.864Z,33.00
2023-03-30T07:44:36.008Z,27.63
2023-03-30T07:47:30.034Z,28.33
2023-03-30T07:50:03.070Z,36.20
2023-03-30T07:52:57.258Z,37.00
2023-03-30T07:55:47.504Z,34.80
2023-03-30T07:58:29.647Z,37.00
2023-03-30T08:01:11.511Z,32.20
2023-03-30T08:04:07.036Z,24.40
2023-03-30T08:06:43.889Z,30.92
2023-03-30T08:09:19.063Z,34.38
2023-03-30T08:12:11.593Z,32.22
2023-03-30T08:15:22.784Z,32.70
2023-03-30T08:18:15.614Z,29.35
2023-03-30T08:20:52.183Z,31.83
2023-03-30T08:23:45.167Z,25.98
2023-03-30T08:26:18.363Z,32.45
2023-03-30T08:29:00.239Z,22.25
2023-03-30T08:32:13.029Z,25.50
2023-03-30T08:34:46.460Z,24.67
2023-03-30T08:37:37.870Z,27.50
2023-03-30T08:40:34.047Z,28.27
2023-03-30T08:44:02.654Z,28.83
2023-03-30T08:46:54.099Z,30.15
2023-03-30T08:52:47.076Z,26.92
2023-03-30T08:55:56.721Z,24.92
2023-03-30T08:59:05.416Z,41.33
2023-03-30T09:01:55.420Z,29.88
2023-03-30T09:05:04.438Z,30.15
2023-03-30T09:08:35.060Z,28.95
2023-03-30T09:11:17.760Z,27.35
2023-03-30T09:14:35.487Z,30.83
2023-03-30T09:17:34.128Z,23.23
2023-03-30T09:20:17.168Z,20.85
2023-03-30T09:23:20.422Z,28.83
2023-03-30T09:26:44.155Z,23.85
2023-03-30T09:29:45.591Z,21.60
2023-03-30T09:32:51.695Z,24.05
2023-03-30T09:35:56.800Z,26.80
2023-03-30T09:38:29.735Z,27.10
2023-03-30T09:41:24.471Z,24.20
2023-03-30T09:44:36.262Z,25.83
2023-03-30T09:47:40.640Z,25.30
2023-03-30T09:50:36.147Z,25.40
2023-03-30T09:53:35.030Z,23.05
2023-03-30T09:56:29.252Z,33.67
2023-03-30T09:59:32.560Z,30.02
2023-03-30T10:02:25.487Z,26.75
2023-03-30T10:05:01.174Z,27.15
2023-03-30T10:07:42.420Z,28.65
2023-03-30T10:10:35.070Z,31.02
2023-03-30T10:13:18.363Z,31.52
2023-03-30T10:15:56.328Z,30.25
2023-03-30T10:18:43.906Z,22.30
2023-03-30T10:21:24.815Z,19.73
2023-03-30T10:24:29.520Z,19.25
2023-03-30T10:27:18.747Z,54.95
2023-03-30T10:30:14.064Z,68.20
2023-03-30T10:32:49.640Z,29.40
2023-03-30T10:35:48.969Z,39.53
2023-03-30T10:38:43.356Z,36.95
2023-03-30T10:41:23.296Z,36.90
2023-03-30T10:44:03.642Z,32.67
2023-03-30T10:46:37.470Z,33.15
2023-03-30T10:49:19.294Z,30.35
2023-03-30T10:52:23.443Z,30.65
2023-03-30T10:55:39.152Z,25.27
2023-03-30T11:01:36.315Z,27.67
2023-03-30T11:04:38.566Z,25.00
2023-03-30T11:07:59.803Z,23.15
2023-03-30T11:10:44.973Z,26.40
2023-03-30T11:14:03.711Z,24.15
2023-03-30T11:16:59.346Z,21.42
2023-03-30T11:19:59.879Z,24.52
2023-03-30T11:22:56.462Z,23.67
2023-03-30T11:26:10.290Z,22.00
2023-03-30T11:29:12.169Z,19.13
2023-03-30T11:32:26.099Z,25.25
2023-03-30T11:36:04.431Z,21.00
2023-03-30T11:39:18.442Z,21.15
2023-03-30T11:42:25.289Z,23.13
2023-03-30T11:48:14.486Z,19.73
2023-03-30T11:51:37.711Z,28.10
2023-03-30T11:54:59.844Z,20.27
2023-03-30T11:58:06.783Z,24.20
2023-03-30T12:01:04.753Z,19.92
2023-03-30T12:04:04.789Z,27.23
2023-03-30T12:07:21.900Z,23.73
2023-03-30T12:10:05.966Z,24.50
2023-03-30T12:13:00.906Z,22.55
2023-03-30T12:15:57.438Z,19.45
2023-03-30T12:18:52.768Z,18.55
2023-03-30T12:22:00.367Z,26.17
2023-03-30T12:25:05.751Z,27.58
2023-03-30T12:28:13.529Z,24.58
2023-03-30T12:31:04.667Z,25.50
2023-03-30T12:34:24.786Z,26.98
2023-03-30T12:37:37.956Z,23.45
2023-03-30T12:40:23.830Z,21.90
2023-03-30T12:43:57.095Z,30.25
2023-03-30T12:47:33.759Z,30.48
2023-03-30T12:50:30.596Z,29.50
2023-03-30T12:53:18.343Z,30.40
2023-03-30T12:56:38.859Z,41.67
2023-03-30T12:59:29.392Z,32.42
2023-03-30T13:02:39.020Z,26.27
2023-03-30T13:05:30.598Z,23.02
2023-03-30T13:08:53.298Z,21.30
2023-03-30T13:12:24.670Z,24.23
2023-03-30T13:15:59.682Z,24.55
2023-03-30T13:18:44.166Z,21.83
2023-03-30T13:21:25.564Z,16.65
2023-03-30T13:27:24.870Z,25.15
2023-03-30T13:30:19.676Z,25.42
2023-03-30T13:33:31.649Z,27.63
2023-03-30T13:36:33.066Z,25.77
2023-03-30T13:39:57.940Z,24.03
2023-03-30T13:43:09.418Z,23.85
2023-03-30T13:46:17.487Z,22.38
2023-03-30T13:49:28.541Z,27.52
2023-03-30T13:52:51.650Z,25.58
2023-03-30T13:55:44.826Z,26.83
2023-03-30T13:58:51.662Z,26.35
2023-03-30T14:01:30.622Z,28.75
2023-03-30T14:07:26.078Z,24.98
2023-03-30T14:10:32.279Z,22.15
2023-03-30T14:13:40.148Z,23.42
2023-03-30T14:16:25.883Z,25.73
2023-03-30T14:19:33.316Z,23.17
2023-03-30T14:22:43.775Z,33.58
2023-03-30T14:26:08.564Z,24.70
2023-03-30T14:29:33.537Z,29.73
2023-03-30T14:32:10.321Z,25.40
2023-03-30T14:34:48.793Z,26.55
2023-03-30T14:38:16.509Z,27.02
2023-03-30T14:41:12.271Z,22.63
2023-03-30T14:44:07.544Z,22.10
2023-03-30T14:47:03.428Z,25.42
2023-03-30T14:49:39.525Z,24.58
2023-03-30T14:52:36.087Z,26.98
2023-03-30T14:55:18.364Z,26.30
2023-03-30T15:01:13.027Z,28.02
2023-03-30T15:04:20.990Z,28.73
2023-03-30T15:08:05.948Z,24.92
2023-03-30T15:11:57.166Z,28.40
2023-03-30T15:14:36.036Z,22.45
2023-03-30T15:17:50.451Z,26.42
2023-03-30T15:20:23.103Z,22.70
2023-03-30T15:23:28.426Z,25.48
2023-03-30T15:26:26.638Z,26.98
2023-03-30T15:29:03.454Z,23.55
2023-03-30T15:31:36.371Z,26.20
2023-03-30T15:34:39.675Z,21.80
2023-03-30T15:37:45.148Z,19.00
2023-03-30T15:40:52.099Z,21.50
2023-03-30T15:43:59.280Z,22.80
2023-03-30T15:46:51.075Z,25.38
2023-03-30T15:49:31.318Z,23.75
2023-03-30T15:52:35.237Z,26.08
2023-03-30T15:55:17.860Z,24.08
2023-03-30T15:58:15.328Z,23.83
2023-03-30T16:01:09.377Z,23.48
2023-03-30T16:03:58.729Z,23.00
2023-03-30T16:06:33.045Z,23.33
2023-03-30T16:09:11.756Z,22.95
2023-03-30T16:11:51.292Z,29.50
2023-03-30T16:15:05.668Z,19.77
2023-03-30T16:17:40.563Z,19.35
2023-03-30T16:20:34.468Z,20.83
2023-03-30T16:23:46.981Z,15.30
2023-03-30T16:26:38.718Z,22.70
2023-03-30T16:29:29.403Z,21.40
2023-03-30T16:32:01.256Z,25.73
2023-03-30T16:34:34.750Z,24.30
2023-03-30T16:37:29.794Z,23.80
2023-03-30T16:40:02.376Z,20.67
2023-03-30T16:43:23.626Z,21.88
2023-03-30T16:46:18.002Z,40.40
2023-03-30T16:48:52.102Z,27.88
2023-03-30T16:51:25.639Z,24.90
2023-03-30T16:54:01.514Z,26.70
2023-03-30T16:57:18.729Z,28.10
2023-03-30T16:59:52.113Z,24.63
2023-03-30T17:02:28.845Z,25.17
2023-03-30T17:05:06.309Z,25.85
2023-03-30T17:07:43.361Z,27.83
2023-03-30T17:11:03.624Z,21.98
2023-03-30T17:13:56.613Z,18.65
2023-03-30T17:17:09.298Z,23.80
2023-03-30T17:20:01.245Z,25.67
2023-03-30T17:22:35.491Z,21.90
2023-03-30T17:25:31.771Z,19.10
2023-03-30T17:28:06.970Z,22.58
2023-03-30T17:30:44.187Z,19.08
2023-03-30T17:33:18.137Z,22.48
2023-03-30T17:38:53.314Z,19.60
2023-03-30T17:41:24.480Z,21.20
2023-03-30T17:43:58.027Z,23.35
2023-03-30T17:46:30.184Z,23.02
2023-03-30T17:49:07.005Z,26.33
2023-03-30T17:51:40.696Z,22.67
2023-03-30T17:54:35.280Z,21.23
2023-03-30T17:57:07.725Z,28.92
2023-03-30T17:59:41.129Z,21.27
2023-03-30T18:02:17.899Z,25.10
2023-03-30T18:04:50.461Z,24.55
2023-03-30T18:07:23.499Z,24.00
2023-03-30T18:09:55.728Z,23.67
2023-03-30T18:12:29.266Z,27.20
2023-03-30T18:15:01.735Z,24.58
2023-03-30T18:17:33.472Z,23.98
2023-03-30T18:20:16.262Z,34.30
2023-03-30T18:22:48.713Z,25.80
2023-03-30T18:25:31.467Z,26.42
2023-03-30T18:28:05.993Z,25.02
2023-03-30T18:30:43.725Z,31.83
2023-03-30T18:33:20.780Z,38.28
2023-03-30T18:36:06.707Z,45.53
2023-03-30T18:38:39.410Z,47.75
2023-03-30T18:41:16.612Z,44.88
2023-03-30T18:43:48.712Z,39.25
2023-03-30T18:46:21.646Z,46.88
2023-03-30T18:48:53.772Z,51.85
2023-03-30T18:51:25.125Z,50.70
2023-03-30T18:53:58.506Z,49.00
2023-03-30T18:56:31.141Z,43.53
2023-03-30T18:59:07.936Z,48.00
2023-03-30T19:01:59.159Z,46.60
2023-03-30T19:04:31.776Z,36.03
2023-03-30T19:07:04.026Z,46.78
2023-03-30T19:09:43.128Z,46.47
2023-03-30T19:12:16.258Z,50.78
2023-03-30T19:14:48.018Z,49.45
2023-03-30T19:17:20.091Z,50.67
2023-03-30T19:19:52.272Z,42.67
2023-03-30T19:22:23.920Z,41.47
2023-03-30T19:24:55.864Z,42.53
2023-03-30T19:27:28.097Z,45.17
2023-03-30T19:30:00.222Z,44.53
2023-03-30T19:32:31.877Z,45.30
2023-03-30T19:35:23.620Z,48.20
2023-03-30T19:37:56.364Z,49.28
2023-03-30T19:40:28.610Z,43.70
2023-03-30T19:42:59.861Z,31.95
2023-03-30T19:45:32.706Z,41.58
2023-03-30T19:48:05.255Z,50.13
2023-03-30T19:50:37.208Z,41.92
2023-03-30T19:53:09.487Z,47.17
2023-03-30T19:55:41.728Z,45.95
2023-03-30T19:58:15.048Z,40.72
2023-03-30T20:00:50.948Z,47.80
2023-03-30T20:03:22.728Z,45.13
2023-03-30T20:05:54.444Z,44.08
2023-03-30T20:08:27.001Z,46.63
2023-03-30T20:10:59.401Z,27.15
2023-03-30T20:13:31.946Z,50.80
2023-03-30T20:16:03.690Z,47.53
2023-03-30T20:18:37.087Z,35.55
2023-03-30T20:21:08.945Z,43.27
2023-03-30T20:23:40.565Z,37.70
2023-03-30T20:26:12.521Z,46.17
2023-03-30T20:28:43.988Z,41.20
2023-03-30T20:31:16.133Z,43.15
2023-03-30T20:33:48.015Z,28.13
2023-03-30T20:36:19.379Z,45.30
2023-03-30T20:38:51.789Z,42.28
2023-03-30T20:41:23.815Z,35.13
2023-03-30T20:43:57.614Z,30.80
2023-03-30T20:46:37.003Z,23.42
2023-03-30T20:49:09.932Z,43.28
2023-03-30T20:51:44.897Z,53.65
2023-03-30T20:54:17.578Z,43.83
2023-03-30T20:56:50.617Z,44.42
2023-03-30T20:59:22.933Z,47.23
2023-03-30T21:01:54.747Z,30.05
2023-03-30T21:04:26.397Z,44.00
2023-03-30T21:06:58.004Z,40.28
2023-03-30T21:09:29.876Z,47.70
2023-03-30T21:12:01.173Z,43.65
2023-03-30T21:14:33.415Z,50.50
2023-03-30T21:17:05.477Z,23.02
2023-03-30T21:19:36.973Z,44.78
2023-03-30T21:22:28.455Z,50.00
2023-03-30T21:24:59.884Z,46.45
2023-03-30T21:27:31.653Z,31.52
2023-03-30T21:30:04.732Z,38.25
2023-03-30T21:32:36.736Z,40.55
2023-03-30T21:35:09.254Z,41.25
2023-03-30T21:38:01.527Z,46.25
2023-03-30T21:40:34.736Z,47.30
2023-03-30T21:43:06.173Z,41.78
2023-03-30T21:45:37.604Z,47.83
2023-03-30T21:48:09.591Z,44.42
2023-03-30T21:50:41.344Z,44.45
2023-03-30T21:53:12.697Z,42.85
2023-03-30T21:56:05.814Z,44.03
2023-03-30T21:58:37.689Z,43.08
2023-03-30T22:01:12.430Z,48.53
2023-03-30T22:03:56.102Z,42.63
2023-03-30T22:06:33.207Z,17.45
2023-03-30T22:09:08.133Z,44.95
2023-03-30T22:11:41.186Z,44.80
2023-03-30T22:14:21.228Z,44.97
2023-03-30T22:16:52.525Z,43.58
2023-03-30T22:19:25.038Z,42.28
2023-03-30T22:21:59.031Z,39.00
2023-03-30T22:24:55.424Z,40.83
2023-03-30T22:27:34.434Z,35.80
2023-03-30T22:30:10.310Z,46.10
2023-03-30T22:32:53.256Z,47.00
2023-03-30T22:35:51.412Z,42.35
2023-03-30T22:38:27.758Z,41.65
2023-03-30T22:41:46.148Z,35.60
2023-03-30T22:44:37.931Z,48.03
2023-03-30T22:47:12.380Z,40.83
2023-03-30T22:52:15.021Z,32.33
2023-03-30T22:54:48.418Z,40.55
2023-03-30T22:57:25.820Z,42.05
2023-03-30T22:59:58.690Z,35.38
2023-03-30T23:02:32.670Z,25.60
2023-03-30T23:05:10.668Z,38.13
2023-03-30T23:07:45.942Z,40.63
2023-03-30T23:10:24.147Z,38.85
2023-03-30T23:13:17.528Z,33.97
2023-03-30T23:15:52.251Z,40.20
2023-03-30T23:18:24.318Z,45.95
2023-03-30T23:21:16.150Z,43.75
2023-03-30T23:23:48.330Z,45.58
2023-03-30T23:26:21.274Z,38.67
2023-03-30T23:28:53.300Z,18.15
2023-03-30T23:31:45.052Z,39.08
2023-03-30T23:34:18.040Z,43.35
2023-03-30T23:36:51.186Z,22.02
2023-03-30T23:39:24.237Z,38.88
2023-03-30T23:41:59.456Z,38.05
2023-03-30T23:44:31.741Z,43.03
2023-03-30T23:47:03.947Z,40.13
2023-03-30T23:49:36.690Z,38.00
2023-03-30T23:52:08.793Z,42.50
2023-03-30T23:54:42.279Z,24.75
2023-03-30T23:57:14.795Z,34.15
2023-03-30T23:59:48.601Z,40.38
